createdAt,value
2022-12-01T00:01:09.438Z,1.60
2022-12-01T00:03:36.815Z,1.70
2022-12-01T00:06:09.848Z,1.80
2022-12-01T00:08:37.064Z,1.90
2022-12-01T00:11:06.056Z,1.90
2022-12-01T00:13:33.663Z,1.80
2022-12-01T00:16:16.899Z,1.80
2022-12-01T00:18:44.259Z,1.80
2022-12-01T00:21:38.119Z,1.80
2022-12-01T00:24:05.641Z,1.90
2022-12-01T00:26:32.773Z,1.90
2022-12-01T00:29:00.154Z,1.80
2022-12-01T00:31:27.791Z,1.80
2022-12-01T00:33:55.117Z,1.80
2022-12-01T00:36:22.429Z,1.80
2022-12-01T00:38:52.981Z,1.80
2022-12-01T00:41:21.314Z,1.80
2022-12-01T00:43:48.477Z,1.80
2022-12-01T00:46:15.785Z,1.80
2022-12-01T00:48:43.175Z,1.90
2022-12-01T00:51:10.322Z,1.90
2022-12-01T00:53:37.739Z,1.90
2022-12-01T00:56:04.986Z,1.80
2022-12-01T00:58:32.123Z,1.80
2022-12-01T01:01:00.228Z,1.80
2022-12-01T01:03:28.056Z,1.80
2022-12-01T01:05:55.342Z,1.70
2022-12-01T01:08:22.479Z,1.70
2022-12-01T01:10:49.851Z,1.70
2022-12-01T01:13:17.371Z,1.70
2022-12-01T01:15:44.938Z,1.80
2022-12-01T01:18:12.351Z,1.80
2022-12-01T01:20:39.695Z,1.80
2022-12-01T01:23:06.910Z,1.80
2022-12-01T01:25:34.188Z,1.80
2022-12-01T01:28:01.413Z,1.80
2022-12-01T01:30:28.612Z,1.80
2022-12-01T01:32:55.760Z,1.90
2022-12-01T01:35:22.951Z,1.90
2022-12-01T01:37:51.043Z,2.00
2022-12-01T01:40:18.764Z,2.10
2022-12-01T01:42:46.053Z,2.10
2022-12-01T01:45:24.931Z,2.20
2022-12-01T01:47:53.014Z,2.20
2022-12-01T01:50:22.350Z,2.20
2022-12-01T01:53:09.807Z,2.20
2022-12-01T01:55:36.935Z,2.30
2022-12-01T01:58:06.225Z,2.30
2022-12-01T02:00:33.379Z,2.20
2022-12-01T02:03:00.635Z,2.30
2022-12-01T02:05:29.735Z,2.30
2022-12-01T02:07:57.598Z,2.30
2022-12-01T02:10:38.583Z,2.30
2022-12-01T02:13:16.362Z,2.30
2022-12-01T02:15:58.578Z,2.40
2022-12-01T02:18:53.558Z,2.40
2022-12-01T02:21:41.661Z,2.40
2022-12-01T02:24:36.643Z,2.40
2022-12-01T02:27:22.320Z,2.40
2022-12-01T02:30:13.149Z,2.40
2022-12-01T02:32:55.348Z,2.50
2022-12-01T02:35:37.078Z,2.50
2022-12-01T02:38:10.306Z,2.50
2022-12-01T02:40:39.929Z,2.50
2022-12-01T02:43:52.214Z,2.50
2022-12-01T02:46:31.003Z,2.50
2022-12-01T02:48:59.729Z,2.40
2022-12-01T02:51:31.869Z,2.40
2022-12-01T02:53:59.662Z,2.40
2022-12-01T02:56:27.303Z,2.40
2022-12-01T02:58:54.572Z,2.40
2022-12-01T03:02:03.902Z,2.30
2022-12-01T03:04:40.491Z,2.40
2022-12-01T03:07:21.795Z,2.40
2022-12-01T03:10:00.740Z,2.50
2022-12-01T03:12:53.058Z,2.50
2022-12-01T03:15:26.168Z,2.50
2022-12-01T03:18:11.823Z,2.50
2022-12-01T03:20:43.111Z,2.60
2022-12-01T03:23:17.825Z,2.50
2022-12-01T03:25:47.381Z,2.50
2022-12-01T03:28:23.050Z,2.60
2022-12-01T03:30:52.340Z,2.40
2022-12-01T03:33:27.121Z,2.30
2022-12-01T03:36:03.756Z,2.40
2022-12-01T03:38:32.032Z,2.30
2022-12-01T03:41:12.868Z,2.30
2022-12-01T03:43:43.040Z,2.20
2022-12-01T03:46:18.500Z,2.20
2022-12-01T03:48:45.699Z,2.30
2022-12-01T03:51:31.843Z,2.30
2022-12-01T03:54:01.824Z,2.20
2022-12-01T03:56:32.409Z,2.20
2022-12-01T03:59:00.457Z,2.20
2022-12-01T04:01:33.097Z,2.20
2022-12-01T04:04:11.810Z,2.30
2022-12-01T04:06:41.066Z,2.20
2022-12-01T04:09:08.396Z,2.20
2022-12-01T04:11:54.195Z,2.20
2022-12-01T04:14:21.438Z,2.10
2022-12-01T04:16:49.100Z,2.00
2022-12-01T04:19:16.413Z,2.00
2022-12-01T04:21:43.681Z,2.00
2022-12-01T04:24:12.169Z,2.00
2022-12-01T04:26:39.457Z,2.00
2022-12-01T04:29:08.538Z,2.00
2022-12-01T04:31:36.049Z,2.00
2022-12-01T04:34:03.738Z,2.00
2022-12-01T04:36:31.883Z,2.00
2022-12-01T04:38:59.244Z,2.00
2022-12-01T04:41:26.515Z,2.00
2022-12-01T04:43:54.747Z,2.20
2022-12-01T04:46:22.415Z,2.10
2022-12-01T04:48:50.043Z,2.10
2022-12-01T04:51:17.190Z,2.20
2022-12-01T04:53:44.561Z,2.10
2022-12-01T04:56:11.738Z,2.20
2022-12-01T04:58:39.003Z,2.10
2022-12-01T05:01:08.266Z,2.20
2022-12-01T05:03:42.727Z,2.20
2022-12-01T05:06:14.959Z,2.20
2022-12-01T05:08:42.373Z,2.20
2022-12-01T05:11:11.466Z,2.10
2022-12-01T05:13:42.134Z,2.20
2022-12-01T05:16:14.290Z,2.20
2022-12-01T05:18:41.673Z,2.20
2022-12-01T05:21:10.004Z,2.20
2022-12-01T05:23:37.758Z,2.20
2022-12-01T05:26:06.288Z,2.30
2022-12-01T05:28:33.429Z,2.20
2022-12-01T05:31:00.992Z,2.20
2022-12-01T05:33:28.589Z,2.20
2022-12-01T05:35:55.913Z,2.20
2022-12-01T05:38:23.472Z,2.30
2022-12-01T05:40:54.580Z,2.30
2022-12-01T05:43:28.341Z,2.40
2022-12-01T05:45:56.434Z,2.40
2022-12-01T05:48:23.776Z,2.40
2022-12-01T05:50:50.865Z,2.40
2022-12-01T05:53:18.581Z,2.40
2022-12-01T05:55:45.822Z,2.50
2022-12-01T05:58:12.922Z,2.50
2022-12-01T06:00:45.632Z,2.50
2022-12-01T06:03:13.137Z,2.40
2022-12-01T06:05:40.517Z,2.40
2022-12-01T06:08:07.972Z,2.50
2022-12-01T06:10:35.049Z,2.50
2022-12-01T06:13:02.645Z,2.50
2022-12-01T06:15:29.881Z,2.50
2022-12-01T06:17:59.728Z,2.50
2022-12-01T06:20:27.314Z,2.50
2022-12-01T06:22:54.382Z,2.50
2022-12-01T06:25:21.412Z,2.50
2022-12-01T06:27:48.573Z,2.60
2022-12-01T06:30:15.911Z,2.60
2022-12-01T06:32:43.112Z,2.70
2022-12-01T06:35:10.205Z,2.70
2022-12-01T06:37:37.511Z,2.70
2022-12-01T06:40:04.973Z,2.70
2022-12-01T06:42:32.739Z,2.60
2022-12-01T06:45:00.190Z,2.70
2022-12-01T06:47:27.730Z,2.70
2022-12-01T06:49:55.081Z,2.70
2022-12-01T06:52:22.071Z,2.70
2022-12-01T06:54:49.156Z,2.80
2022-12-01T06:57:16.517Z,2.80
2022-12-01T06:59:43.957Z,2.70
2022-12-01T07:02:11.905Z,2.70
2022-12-01T07:04:39.115Z,2.70
2022-12-01T07:07:06.641Z,2.70
2022-12-01T07:09:34.027Z,2.70
2022-12-01T07:12:01.320Z,2.60
2022-12-01T07:14:31.697Z,2.60
2022-12-01T07:16:59.414Z,2.60
2022-12-01T07:19:26.683Z,2.50
2022-12-01T07:21:53.806Z,2.50
2022-12-01T07:24:21.034Z,2.70
2022-12-01T07:26:48.457Z,2.60
2022-12-01T07:29:15.629Z,2.60
2022-12-01T07:31:42.769Z,2.60
2022-12-01T07:34:11.829Z,2.70
2022-12-01T07:36:39.138Z,2.70
2022-12-01T07:39:07.707Z,2.80
2022-12-01T07:41:35.866Z,2.80
2022-12-01T07:44:03.006Z,2.80
2022-12-01T07:46:30.236Z,2.90
2022-12-01T07:48:57.477Z,2.90
2022-12-01T07:51:25.097Z,3.00
2022-12-01T07:53:52.684Z,2.90
2022-12-01T07:56:20.023Z,2.80
2022-12-01T07:58:47.096Z,2.90
2022-12-01T08:01:16.352Z,2.90
2022-12-01T08:03:43.776Z,3.00
2022-12-01T08:06:11.290Z,3.10
2022-12-01T08:08:39.369Z,3.30
2022-12-01T08:11:08.309Z,3.30
2022-12-01T08:13:35.682Z,3.30
2022-12-01T08:16:06.949Z,3.30
2022-12-01T08:18:38.196Z,3.20
2022-12-01T08:21:05.909Z,3.30
2022-12-01T08:23:33.318Z,3.20
2022-12-01T08:26:19.739Z,3.20
2022-12-01T08:28:46.868Z,3.20
2022-12-01T08:31:22.656Z,3.20
2022-12-01T08:33:51.212Z,3.30
2022-12-01T08:36:19.016Z,3.30
2022-12-01T08:38:47.019Z,3.30
2022-12-01T08:41:14.360Z,3.30
2022-12-01T08:44:00.656Z,3.30
2022-12-01T08:46:29.423Z,3.30
2022-12-01T08:48:57.981Z,3.30
2022-12-01T08:51:25.418Z,3.20
2022-12-01T08:53:52.627Z,3.30
2022-12-01T08:56:27.958Z,3.40
2022-12-01T08:58:55.288Z,3.40
2022-12-01T09:01:22.532Z,3.30
2022-12-01T09:04:05.903Z,3.20
2022-12-01T09:06:41.633Z,3.10
2022-12-01T09:09:14.678Z,3.00
2022-12-01T09:11:43.863Z,3.00
2022-12-01T09:14:12.005Z,3.00
2022-12-01T09:16:39.704Z,2.90
2022-12-01T09:19:06.843Z,2.90
2022-12-01T09:21:34.393Z,3.00
2022-12-01T09:24:01.750Z,3.00
2022-12-01T09:26:28.984Z,3.10
2022-12-01T09:28:57.946Z,3.00
2022-12-01T09:31:25.261Z,3.00
2022-12-01T09:33:56.536Z,3.10
2022-12-01T09:36:23.690Z,3.20
2022-12-01T09:38:51.165Z,3.20
2022-12-01T09:41:28.112Z,3.20
2022-12-01T09:44:14.434Z,3.40
2022-12-01T09:46:48.416Z,3.40
2022-12-01T09:49:26.891Z,3.40
2022-12-01T09:51:54.371Z,3.60
2022-12-01T09:54:21.480Z,3.50
2022-12-01T09:56:52.672Z,3.40
2022-12-01T09:59:24.639Z,3.60
2022-12-01T10:01:55.414Z,3.60
2022-12-01T10:04:34.816Z,3.60
2022-12-01T10:07:22.526Z,3.50
2022-12-01T10:10:01.477Z,3.60
2022-12-01T10:12:36.055Z,3.50
2022-12-01T10:15:24.736Z,3.50
2022-12-01T10:17:55.999Z,3.60
2022-12-01T10:20:34.367Z,3.60
2022-12-01T10:23:16.279Z,3.50
2022-12-01T10:25:51.247Z,3.50
2022-12-01T10:28:18.348Z,3.50
2022-12-01T10:30:52.899Z,3.50
2022-12-01T10:33:23.140Z,3.50
2022-12-01T10:35:51.077Z,3.40
2022-12-01T10:38:31.456Z,3.40
2022-12-01T10:41:00.965Z,3.40
2022-12-01T10:43:46.027Z,3.40
2022-12-01T10:46:25.996Z,3.50
2022-12-01T10:48:57.841Z,3.50
2022-12-01T10:51:25.704Z,3.50
2022-12-01T10:54:08.252Z,3.50
2022-12-01T10:56:35.498Z,3.60
2022-12-01T10:59:13.352Z,3.60
2022-12-01T11:01:46.717Z,3.60
2022-12-01T11:04:45.892Z,3.60
2022-12-01T11:07:18.518Z,3.60
2022-12-01T11:09:46.281Z,3.70
2022-12-01T11:12:15.963Z,3.80
2022-12-01T11:14:51.201Z,3.70
2022-12-01T11:17:27.393Z,3.90
2022-12-01T11:19:54.882Z,4.00
2022-12-01T11:22:27.363Z,3.80
2022-12-01T11:24:54.364Z,3.80
2022-12-01T11:27:24.298Z,3.90
2022-12-01T11:29:53.143Z,3.80
2022-12-01T11:32:38.916Z,3.90
2022-12-01T11:35:18.857Z,4.00
2022-12-01T11:38:28.166Z,4.10
2022-12-01T11:40:55.109Z,4.10
2022-12-01T11:43:32.796Z,4.20
2022-12-01T11:46:04.965Z,4.30
2022-12-01T11:48:35.107Z,4.20
2022-12-01T11:51:17.941Z,4.20
2022-12-01T11:53:45.048Z,4.30
2022-12-01T11:56:28.296Z,4.30
2022-12-01T11:59:22.150Z,4.20
2022-12-01T12:02:04.450Z,4.10
2022-12-01T12:04:57.335Z,4.10
2022-12-01T12:07:51.838Z,4.20
2022-12-01T12:10:27.794Z,4.30
2022-12-01T12:13:22.290Z,4.30
2022-12-01T12:16:01.616Z,4.40
2022-12-01T12:18:54.600Z,4.20
2022-12-01T12:21:34.564Z,4.20
2022-12-01T12:24:12.502Z,4.20
2022-12-01T12:26:43.354Z,4.20
2022-12-01T12:29:32.221Z,4.10
2022-12-01T12:32:17.896Z,4.20
2022-12-01T12:35:10.066Z,4.30
2022-12-01T12:38:05.058Z,4.20
2022-12-01T12:40:38.108Z,4.20
2022-12-01T12:43:20.402Z,4.30
2022-12-01T12:46:18.076Z,4.20
2022-12-01T12:51:54.891Z,4.20
2022-12-01T12:54:59.485Z,4.30
2022-12-01T12:57:33.264Z,4.30
2022-12-01T13:00:02.506Z,4.40
2022-12-01T13:02:50.789Z,4.40
2022-12-01T13:05:23.744Z,4.40
2022-12-01T13:07:57.337Z,4.30
2022-12-01T13:10:33.878Z,4.30
2022-12-01T13:13:21.283Z,4.20
2022-12-01T13:15:49.391Z,4.10
2022-12-01T13:18:53.337Z,4.00
2022-12-01T13:21:21.688Z,4.00
2022-12-01T13:23:49.747Z,3.90
2022-12-01T13:26:18.383Z,3.90
2022-12-01T13:28:47.067Z,3.80
2022-12-01T13:31:15.048Z,3.80
2022-12-01T13:34:05.593Z,3.80
2022-12-01T13:36:48.648Z,3.80
2022-12-01T13:39:21.425Z,3.90
2022-12-01T13:42:07.097Z,3.80
2022-12-01T13:44:38.910Z,3.80
2022-12-01T13:47:08.948Z,3.90
2022-12-01T13:49:42.389Z,4.00
2022-12-01T13:52:21.788Z,4.00
2022-12-01T13:55:23.549Z,3.80
2022-12-01T13:57:56.780Z,3.70
2022-12-01T14:00:34.860Z,3.70
2022-12-01T14:03:20.141Z,3.70
2022-12-01T14:05:59.152Z,3.80
2022-12-01T14:08:56.058Z,3.70
2022-12-01T14:11:25.039Z,3.70
2022-12-01T14:14:01.278Z,3.80
2022-12-01T14:16:52.502Z,3.70
2022-12-01T14:19:28.543Z,3.60
2022-12-01T14:21:55.687Z,3.40
2022-12-01T14:24:44.307Z,3.50
2022-12-01T14:27:12.180Z,3.30
2022-12-01T14:29:43.160Z,3.30
2022-12-01T14:32:10.249Z,3.20
2022-12-01T14:34:37.694Z,3.20
2022-12-01T14:37:17.783Z,3.20
2022-12-01T14:39:59.091Z,3.20
2022-12-01T14:42:51.564Z,3.30
2022-12-01T14:45:50.943Z,3.30
2022-12-01T14:48:21.874Z,3.30
2022-12-01T14:50:50.977Z,3.20
2022-12-01T14:53:21.232Z,3.30
2022-12-01T14:55:56.754Z,3.30
2022-12-01T14:58:29.152Z,3.30
2022-12-01T15:01:06.263Z,3.10
2022-12-01T15:03:44.212Z,3.10
2022-12-01T15:06:11.442Z,3.10
2022-12-01T15:09:25.228Z,3.10
2022-12-01T15:11:26.127Z,3.10
2022-12-01T15:13:56.609Z,3.10
2022-12-01T15:16:26.376Z,3.10
2022-12-01T15:18:53.658Z,3.10
2022-12-01T15:21:26.050Z,3.00
2022-12-01T15:24:06.901Z,3.10
2022-12-01T15:26:36.027Z,2.90
2022-12-01T15:29:19.632Z,3.10
2022-12-01T15:31:52.067Z,3.20
2022-12-01T15:34:39.572Z,3.10
2022-12-01T15:37:11.152Z,3.10
2022-12-01T15:39:45.492Z,3.00
2022-12-01T15:42:23.395Z,3.00
2022-12-01T15:45:12.864Z,3.00
2022-12-01T15:47:45.978Z,2.90
2022-12-01T15:50:37.683Z,2.90
2022-12-01T15:53:20.485Z,3.00
2022-12-01T15:55:48.466Z,3.00
2022-12-01T15:58:26.379Z,2.90
2022-12-01T16:01:06.809Z,2.80
2022-12-01T16:03:57.400Z,2.90
2022-12-01T16:06:29.319Z,2.90
2022-12-01T16:09:05.023Z,2.90
2022-12-01T16:11:32.291Z,2.80
2022-12-01T16:14:18.136Z,2.80
2022-12-01T16:16:48.748Z,2.80
2022-12-01T16:19:23.580Z,2.80
2022-12-01T16:21:56.361Z,2.80
2022-12-01T16:24:27.741Z,2.80
2022-12-01T16:27:02.014Z,2.80
2022-12-01T16:29:34.141Z,2.90
2022-12-01T16:32:21.602Z,2.80
2022-12-01T16:34:51.034Z,2.80
2022-12-01T16:37:18.276Z,2.90
2022-12-01T16:39:45.416Z,2.90
2022-12-01T16:42:14.379Z,2.80
2022-12-01T16:44:42.182Z,2.80
2022-12-01T16:47:20.574Z,2.80
2022-12-01T16:49:47.840Z,2.70
2022-12-01T16:52:42.970Z,2.70
2022-12-01T16:55:02.518Z,2.80
2022-12-01T16:57:29.894Z,2.80
2022-12-01T16:59:56.978Z,2.80
2022-12-01T17:02:24.132Z,2.80
2022-12-01T17:04:51.568Z,2.90
2022-12-01T17:07:18.858Z,2.90
2022-12-01T17:09:46.131Z,3.00
2022-12-01T17:12:13.314Z,3.10
2022-12-01T17:14:40.534Z,3.10
2022-12-01T17:17:07.566Z,3.10
2022-12-01T17:19:34.702Z,3.00
2022-12-01T17:22:01.802Z,3.00
2022-12-01T17:24:29.179Z,2.90
2022-12-01T17:26:56.370Z,2.80
2022-12-01T17:29:23.495Z,2.90
2022-12-01T17:31:50.599Z,2.90
2022-12-01T17:34:17.609Z,2.80
2022-12-01T17:36:44.640Z,2.80
2022-12-01T17:39:11.963Z,2.80
2022-12-01T17:41:41.147Z,2.70
2022-12-01T17:44:08.441Z,2.60
2022-12-01T17:46:35.893Z,2.60
2022-12-01T17:49:08.644Z,2.60
2022-12-01T17:51:36.951Z,2.70
2022-12-01T17:54:04.307Z,2.70
2022-12-01T17:56:32.050Z,2.60
2022-12-01T17:58:59.333Z,2.70
2022-12-01T18:01:30.257Z,2.80
2022-12-01T18:03:58.662Z,2.80
2022-12-01T18:06:26.956Z,2.80
2022-12-01T18:08:54.137Z,2.80
2022-12-01T18:11:22.150Z,2.90
2022-12-01T18:13:50.538Z,2.80
2022-12-01T18:16:22.696Z,2.80
2022-12-01T18:18:50.234Z,2.80
2022-12-01T18:21:18.940Z,2.80
2022-12-01T18:23:53.245Z,2.70
2022-12-01T18:26:22.335Z,2.70
2022-12-01T18:29:28.743Z,2.60
2022-12-01T18:31:59.794Z,2.60
2022-12-01T18:34:29.602Z,2.70
2022-12-01T18:36:56.869Z,2.70
2022-12-01T18:39:24.160Z,2.60
2022-12-01T18:41:51.352Z,2.70
2022-12-01T18:44:18.688Z,2.70
2022-12-01T18:46:45.948Z,2.70
2022-12-01T18:49:13.307Z,2.70
2022-12-01T18:51:40.529Z,2.60
2022-12-01T18:54:08.332Z,2.60
2022-12-01T18:56:35.998Z,2.70
2022-12-01T18:59:05.345Z,2.70
2022-12-01T19:01:36.016Z,2.70
2022-12-01T19:04:03.725Z,2.60
2022-12-01T19:06:30.865Z,2.50
2022-12-01T19:09:00.165Z,2.50
2022-12-01T19:11:27.644Z,2.50
2022-12-01T19:13:56.215Z,2.60
2022-12-01T19:16:23.481Z,2.60
2022-12-01T19:18:50.928Z,2.50
2022-12-01T19:21:18.968Z,2.60
2022-12-01T19:23:46.658Z,2.60
2022-12-01T19:26:15.788Z,2.70
2022-12-01T19:28:45.871Z,2.80
2022-12-01T19:31:20.782Z,2.80
2022-12-01T19:33:47.834Z,2.80
2022-12-01T19:36:17.290Z,2.80
2022-12-01T19:38:45.246Z,2.70
2022-12-01T19:41:12.866Z,2.80
2022-12-01T19:43:40.097Z,2.90
2022-12-01T19:46:12.619Z,2.80
2022-12-01T19:48:39.828Z,2.80
2022-12-01T19:51:07.239Z,2.70
2022-12-01T19:53:34.824Z,2.80
2022-12-01T19:56:05.486Z,2.90
2022-12-01T19:58:33.571Z,3.00
2022-12-01T20:01:08.857Z,3.00
2022-12-01T20:03:36.122Z,3.00
2022-12-01T20:06:10.004Z,3.00
2022-12-01T20:08:37.235Z,2.90
2022-12-01T20:11:04.961Z,2.90
2022-12-01T20:13:33.220Z,2.90
2022-12-01T20:16:20.761Z,2.90
2022-12-01T20:18:48.212Z,2.90
2022-12-01T20:21:23.280Z,2.90
2022-12-01T20:24:00.570Z,2.90
2022-12-01T20:26:30.765Z,2.80
2022-12-01T20:29:01.122Z,2.70
2022-12-01T20:31:29.024Z,2.70
2022-12-01T20:33:56.992Z,2.80
2022-12-01T20:36:24.523Z,2.80
2022-12-01T20:38:51.711Z,2.70
2022-12-01T20:41:18.918Z,2.60
2022-12-01T20:43:46.162Z,2.60
2022-12-01T20:46:13.960Z,2.70
2022-12-01T20:48:41.197Z,2.70
2022-12-01T20:51:09.014Z,2.80
2022-12-01T20:53:36.545Z,2.80
2022-12-01T20:56:04.891Z,2.80
2022-12-01T20:58:37.268Z,2.70
2022-12-01T21:01:09.645Z,2.70
2022-12-01T21:03:38.652Z,2.80
2022-12-01T21:06:06.334Z,2.90
2022-12-01T21:08:33.596Z,2.80
2022-12-01T21:11:42.279Z,2.90
2022-12-01T21:14:23.262Z,2.80
2022-12-01T21:16:50.439Z,2.80
2022-12-01T21:19:23.026Z,2.80
2022-12-01T21:21:50.236Z,2.90
2022-12-01T21:24:19.933Z,3.00
2022-12-01T21:26:49.706Z,2.90
2022-12-01T21:29:28.051Z,2.90
2022-12-01T21:32:00.645Z,2.90
2022-12-01T21:34:28.795Z,2.80
2022-12-01T21:36:57.390Z,2.80
2022-12-01T21:39:25.073Z,2.70
2022-12-01T21:41:56.608Z,2.80
2022-12-01T21:44:27.032Z,2.80
2022-12-01T21:46:56.420Z,2.80
2022-12-01T21:49:39.028Z,2.70
2022-12-01T21:52:21.885Z,2.60
2022-12-01T21:54:49.429Z,2.60
2022-12-01T21:57:41.234Z,2.60
2022-12-01T22:00:21.912Z,2.60
2022-12-01T22:02:50.602Z,2.50
2022-12-01T22:05:40.645Z,2.50
2022-12-01T22:08:13.910Z,2.60
2022-12-01T22:10:59.862Z,2.60
2022-12-01T22:14:10.700Z,2.50
2022-12-01T22:16:45.636Z,2.50
2022-12-01T22:19:16.109Z,2.60
2022-12-01T22:21:49.778Z,2.70
2022-12-01T22:24:24.102Z,2.70
2022-12-01T22:26:58.592Z,2.70
2022-12-01T22:29:29.592Z,2.60
2022-12-01T22:32:17.076Z,2.50
2022-12-01T22:34:51.487Z,2.60
2022-12-01T22:37:36.834Z,2.70
2022-12-01T22:40:26.645Z,2.60
2022-12-01T22:42:53.950Z,2.70
2022-12-01T22:45:25.391Z,2.80
2022-12-01T22:47:56.540Z,2.80
2022-12-01T22:50:29.033Z,2.70
2022-12-01T22:53:27.010Z,2.80
2022-12-01T22:55:55.333Z,2.80
2022-12-01T22:58:32.170Z,2.80
2022-12-01T23:01:03.079Z,2.80
2022-12-01T23:03:30.193Z,2.80
2022-12-01T23:05:57.561Z,2.80
2022-12-01T23:08:24.744Z,2.80
2022-12-01T23:10:51.784Z,2.80
2022-12-01T23:13:23.488Z,2.80
2022-12-01T23:15:53.400Z,2.60
2022-12-01T23:18:24.583Z,2.50
2022-12-01T23:20:58.977Z,2.50
2022-12-01T23:23:30.663Z,2.60
2022-12-01T23:25:58.031Z,2.60
2022-12-01T23:28:25.327Z,2.70
2022-12-01T23:30:55.037Z,2.70
2022-12-01T23:33:32.099Z,2.80
2022-12-01T23:36:07.242Z,2.70
2022-12-01T23:38:41.378Z,2.60
2022-12-01T23:41:14.678Z,2.60
2022-12-01T23:43:43.260Z,2.60
2022-12-01T23:46:24.234Z,2.40
2022-12-01T23:48:56.866Z,2.40
2022-12-01T23:51:25.823Z,2.30
2022-12-01T23:53:53.175Z,2.40
2022-12-01T23:56:21.798Z,2.40
2022-12-01T23:58:49.035Z,2.50
